sensor_id;sensor_type;location;lat;lon;timestamp;P1;durP1;ratioP1;P2;durP2;ratioP2
65018;SDS011;66069;51.164;-114.452;2023-06-22T00:01:09;1.45;;;0.70;;
65018;SDS011;66069;51.164;-114.452;2023-06-22T00:03:35;2.22;;;1.05;;
65018;SDS011;66069;51.164;-114.452;2023-06-22T00:06:01;2.22;;;1.02;;
65018;SDS011;66069;51.164;-114.452;2023-06-22T00:08:27;2.08;;;1.00;;
65018;SDS011;66069;51.164;-114.452;2023-06-22T00:10:53;2.00;;;0.93;;
65018;SDS011;66069;51.164;-114.452;2023-06-22T00:13:18;2.03;;;0.98;;
65018;SDS011;66069;51.164;-114.452;2023-06-22T00:15:44;2.20;;;1.00;;
65018;SDS011;66069;51.164;-114.452;2023-06-22T00:18:10;2.10;;;1.00;;
65018;SDS011;66069;51.164;-114.452;2023-06-22T00:20:38;1.67;;;0.80;;
65018;SDS011;66069;51.164;-114.452;2023-06-22T00:23:05;2.58;;;1.25;;
65018;SDS011;66069;51.164;-114.452;2023-06-22T00:25:37;3.07;;;1.13;;
65018;SDS011;66069;51.164;-114.452;2023-06-22T00:28:05;2.42;;;1.10;;
65018;SDS011;66069;51.164;-114.452;2023-06-22T00:30:31;2.55;;;1.13;;
65018;SDS011;66069;51.164;-114.452;2023-06-22T00:32:58;1.73;;;0.80;;
65018;SDS011;66069;51.164;-114.452;2023-06-22T00:35:24;2.53;;;1.10;;
65018;SDS011;66069;51.164;-114.452;2023-06-22T00:37:54;3.17;;;1.23;;
65018;SDS011;66069;51.164;-114.452;2023-06-22T00:40:28;2.38;;;1.17;;
65018;SDS011;66069;51.164;-114.452;2023-06-22T00:42:54;2.20;;;1.08;;
65018;SDS011;66069;51.164;-114.452;2023-06-22T00:45:21;2.30;;;1.10;;
65018;SDS011;66069;51.164;-114.452;2023-06-22T00:47:50;1.92;;;0.90;;
65018;SDS011;66069;51.164;-114.452;2023-06-22T00:50:18;2.35;;;1.08;;
65018;SDS011;66069;51.164;-114.452;2023-06-22T00:52:55;3.20;;;1.38;;
65018;SDS011;66069;51.164;-114.452;2023-06-22T00:55:22;3.88;;;1.42;;
65018;SDS011;66069;51.164;-114.452;2023-06-22T00:57:48;2.15;;;1.10;;
65018;SDS011;66069;51.164;-114.452;2023-06-22T01:00:15;2.20;;;0.90;;
65018;SDS011;66069;51.164;-114.452;2023-06-22T01:02:43;2.40;;;1.10;;
65018;SDS011;66069;51.164;-114.452;2023-06-22T01:05:14;2.20;;;1.08;;
65018;SDS011;66069;51.164;-114.452;2023-06-22T01:10:33;2.55;;;1.20;;
65018;SDS011;66069;51.164;-114.452;2023-06-22T01:13:04;1.85;;;1.00;;
65018;SDS011;66069;51.164;-114.452;2023-06-22T01:15:34;2.60;;;1.20;;
65018;SDS011;66069;51.164;-114.452;2023-06-22T01:20:28;2.75;;;1.00;;
65018;SDS011;66069;51.164;-114.452;2023-06-22T01:23:10;2.40;;;1.02;;
65018;SDS011;66069;51.164;-114.452;2023-06-22T01:25:47;2.28;;;1.10;;
65018;SDS011;66069;51.164;-114.452;2023-06-22T01:30:59;2.72;;;1.25;;
65018;SDS011;66069;51.164;-114.452;2023-06-22T01:33:32;2.13;;;1.00;;
65018;SDS011;66069;51.164;-114.452;2023-06-22T01:35:59;1.83;;;0.85;;
65018;SDS011;66069;51.164;-114.452;2023-06-22T01:38:25;2.13;;;0.90;;
65018;SDS011;66069;51.164;-114.452;2023-06-22T01:40:52;2.15;;;1.10;;
65018;SDS011;66069;51.164;-114.452;2023-06-22T01:43:18;2.38;;;1.08;;
65018;SDS011;66069;51.164;-114.452;2023-06-22T01:45:45;1.65;;;0.82;;
65018;SDS011;66069;51.164;-114.452;2023-06-22T01:48:10;2.92;;;1.33;;
65018;SDS011;66069;51.164;-114.452;2023-06-22T01:50:36;2.92;;;0.95;;
65018;SDS011;66069;51.164;-114.452;2023-06-22T01:53:02;2.35;;;1.00;;
65018;SDS011;66069;51.164;-114.452;2023-06-22T01:55:28;2.50;;;1.00;;
65018;SDS011;66069;51.164;-114.452;2023-06-22T01:57:54;2.60;;;1.10;;
65018;SDS011;66069;51.164;-114.452;2023-06-22T02:00:20;2.00;;;0.98;;
65018;SDS011;66069;51.164;-114.452;2023-06-22T02:05:20;2.22;;;0.95;;
65018;SDS011;66069;51.164;-114.452;2023-06-22T02:07:48;2.15;;;0.90;;
65018;SDS011;66069;51.164;-114.452;2023-06-22T02:10:15;3.20;;;1.20;;
65018;SDS011;66069;51.164;-114.452;2023-06-22T02:12:42;1.77;;;1.02;;
65018;SDS011;66069;51.164;-114.452;2023-06-22T02:15:09;2.78;;;1.20;;
65018;SDS011;66069;51.164;-114.452;2023-06-22T02:17:35;2.10;;;0.95;;
65018;SDS011;66069;51.164;-114.452;2023-06-22T02:20:03;2.38;;;1.20;;
65018;SDS011;66069;51.164;-114.452;2023-06-22T02:22:34;2.38;;;1.23;;
65018;SDS011;66069;51.164;-114.452;2023-06-22T02:24:59;2.20;;;1.00;;
65018;SDS011;66069;51.164;-114.452;2023-06-22T02:27:25;2.75;;;1.23;;
65018;SDS011;66069;51.164;-114.452;2023-06-22T02:29:51;1.92;;;1.10;;
65018;SDS011;66069;51.164;-114.452;2023-06-22T02:32:17;2.83;;;1.35;;
65018;SDS011;66069;51.164;-114.452;2023-06-22T02:34:43;2.53;;;1.10;;
65018;SDS011;66069;51.164;-114.452;2023-06-22T02:37:13;2.60;;;1.13;;
65018;SDS011;66069;51.164;-114.452;2023-06-22T02:39:40;2.75;;;1.02;;
65018;SDS011;66069;51.164;-114.452;2023-06-22T02:42:06;1.90;;;1.00;;
65018;SDS011;66069;51.164;-114.452;2023-06-22T02:44:32;3.10;;;1.30;;
65018;SDS011;66069;51.164;-114.452;2023-06-22T02:46:57;3.30;;;1.27;;
65018;SDS011;66069;51.164;-114.452;2023-06-22T02:49:23;2.70;;;1.10;;
65018;SDS011;66069;51.164;-114.452;2023-06-22T02:51:49;2.33;;;1.10;;
65018;SDS011;66069;51.164;-114.452;2023-06-22T02:54:15;2.17;;;1.10;;
65018;SDS011;66069;51.164;-114.452;2023-06-22T02:56:42;2.33;;;1.05;;
65018;SDS011;66069;51.164;-114.452;2023-06-22T02:59:09;2.53;;;1.10;;
65018;SDS011;66069;51.164;-114.452;2023-06-22T03:01:36;2.17;;;1.00;;
65018;SDS011;66069;51.164;-114.452;2023-06-22T03:04:14;2.35;;;1.55;;
65018;SDS011;66069;51.164;-114.452;2023-06-22T03:06:40;2.35;;;1.10;;
65018;SDS011;66069;51.164;-114.452;2023-06-22T03:09:06;2.20;;;0.95;;
65018;SDS011;66069;51.164;-114.452;2023-06-22T03:11:33;1.77;;;0.93;;
65018;SDS011;66069;51.164;-114.452;2023-06-22T03:13:59;2.20;;;1.13;;
65018;SDS011;66069;51.164;-114.452;2023-06-22T03:16:25;1.80;;;0.95;;
65018;SDS011;66069;51.164;-114.452;2023-06-22T03:18:51;1.85;;;1.00;;
65018;SDS011;66069;51.164;-114.452;2023-06-22T03:21:19;2.28;;;1.20;;
65018;SDS011;66069;51.164;-114.452;2023-06-22T03:23:45;1.98;;;1.00;;
65018;SDS011;66069;51.164;-114.452;2023-06-22T03:26:11;2.00;;;1.02;;
65018;SDS011;66069;51.164;-114.452;2023-06-22T03:28:37;2.25;;;0.90;;
65018;SDS011;66069;51.164;-114.452;2023-06-22T03:31:03;2.15;;;1.10;;
65018;SDS011;66069;51.164;-114.452;2023-06-22T03:33:29;2.42;;;1.05;;
65018;SDS011;66069;51.164;-114.452;2023-06-22T03:35:55;2.08;;;1.00;;
65018;SDS011;66069;51.164;-114.452;2023-06-22T03:38:21;1.75;;;0.90;;
65018;SDS011;66069;51.164;-114.452;2023-06-22T03:40:47;1.67;;;0.85;;
65018;SDS011;66069;51.164;-114.452;2023-06-22T03:43:12;2.20;;;1.10;;
65018;SDS011;66069;51.164;-114.452;2023-06-22T03:45:38;2.00;;;0.90;;
65018;SDS011;66069;51.164;-114.452;2023-06-22T03:48:05;1.70;;;0.98;;
65018;SDS011;66069;51.164;-114.452;2023-06-22T03:50:31;1.90;;;0.93;;
65018;SDS011;66069;51.164;-114.452;2023-06-22T03:52:57;1.55;;;0.93;;
65018;SDS011;66069;51.164;-114.452;2023-06-22T03:55:23;1.92;;;1.13;;
65018;SDS011;66069;51.164;-114.452;2023-06-22T03:57:49;1.77;;;0.80;;
65018;SDS011;66069;51.164;-114.452;2023-06-22T04:00:15;1.48;;;0.80;;
65018;SDS011;66069;51.164;-114.452;2023-06-22T04:02:41;2.00;;;1.08;;
65018;SDS011;66069;51.164;-114.452;2023-06-22T04:05:08;2.20;;;1.08;;
65018;SDS011;66069;51.164;-114.452;2023-06-22T04:07:34;1.73;;;0.90;;
65018;SDS011;66069;51.164;-114.452;2023-06-22T04:10:03;1.55;;;0.90;;
65018;SDS011;66069;51.164;-114.452;2023-06-22T04:12:29;1.67;;;1.00;;
65018;SDS011;66069;51.164;-114.452;2023-06-22T04:14:55;2.00;;;0.98;;
65018;SDS011;66069;51.164;-114.452;2023-06-22T04:17:20;2.20;;;0.90;;
65018;SDS011;66069;51.164;-114.452;2023-06-22T04:19:46;2.08;;;1.00;;
65018;SDS011;66069;51.164;-114.452;2023-06-22T04:22:12;1.70;;;0.90;;
65018;SDS011;66069;51.164;-114.452;2023-06-22T04:24:38;2.38;;;0.90;;
65018;SDS011;66069;51.164;-114.452;2023-06-22T04:27:04;2.38;;;1.05;;
65018;SDS011;66069;51.164;-114.452;2023-06-22T04:29:30;1.33;;;0.70;;
65018;SDS011;66069;51.164;-114.452;2023-06-22T04:31:56;1.63;;;0.90;;
65018;SDS011;66069;51.164;-114.452;2023-06-22T04:34:24;1.55;;;0.80;;
65018;SDS011;66069;51.164;-114.452;2023-06-22T04:36:53;1.60;;;0.90;;
65018;SDS011;66069;51.164;-114.452;2023-06-22T04:39:19;2.08;;;0.93;;
65018;SDS011;66069;51.164;-114.452;2023-06-22T04:41:45;1.88;;;1.00;;
65018;SDS011;66069;51.164;-114.452;2023-06-22T04:44:16;1.67;;;0.73;;
65018;SDS011;66069;51.164;-114.452;2023-06-22T04:46:52;2.47;;;0.80;;
65018;SDS011;66069;51.164;-114.452;2023-06-22T04:49:29;1.67;;;0.73;;
65018;SDS011;66069;51.164;-114.452;2023-06-22T04:52:07;1.67;;;0.85;;
65018;SDS011;66069;51.164;-114.452;2023-06-22T04:54:33;1.80;;;0.88;;
65018;SDS011;66069;51.164;-114.452;2023-06-22T04:57:00;1.67;;;0.90;;
65018;SDS011;66069;51.164;-114.452;2023-06-22T04:59:29;2.05;;;0.88;;
65018;SDS011;66069;51.164;-114.452;2023-06-22T05:01:55;2.13;;;0.90;;
65018;SDS011;66069;51.164;-114.452;2023-06-22T05:04:22;1.60;;;0.80;;
65018;SDS011;66069;51.164;-114.452;2023-06-22T05:06:52;2.60;;;1.13;;
65018;SDS011;66069;51.164;-114.452;2023-06-22T05:09:18;1.52;;;0.80;;
65018;SDS011;66069;51.164;-114.452;2023-06-22T05:11:44;2.53;;;1.17;;
65018;SDS011;66069;51.164;-114.452;2023-06-22T05:14:10;2.03;;;0.88;;
65018;SDS011;66069;51.164;-114.452;2023-06-22T05:16:36;1.75;;;0.82;;
65018;SDS011;66069;51.164;-114.452;2023-06-22T05:19:02;1.42;;;0.80;;
65018;SDS011;66069;51.164;-114.452;2023-06-22T05:21:29;1.92;;;0.90;;
65018;SDS011;66069;51.164;-114.452;2023-06-22T05:23:55;1.83;;;0.80;;
65018;SDS011;66069;51.164;-114.452;2023-06-22T05:26:25;1.67;;;0.80;;
65018;SDS011;66069;51.164;-114.452;2023-06-22T05:28:51;1.63;;;0.73;;
65018;SDS011;66069;51.164;-114.452;2023-06-22T05:31:17;1.90;;;0.90;;
65018;SDS011;66069;51.164;-114.452;2023-06-22T05:33:45;1.48;;;0.70;;
65018;SDS011;66069;51.164;-114.452;2023-06-22T05:36:11;2.00;;;0.80;;
65018;SDS011;66069;51.164;-114.452;2023-06-22T05:38:38;1.88;;;0.75;;
65018;SDS011;66069;51.164;-114.452;2023-06-22T05:41:03;1.88;;;0.82;;
65018;SDS011;66069;51.164;-114.452;2023-06-22T05:43:29;1.85;;;1.05;;
65018;SDS011;66069;51.164;-114.452;2023-06-22T05:45:55;1.88;;;0.90;;
65018;SDS011;66069;51.164;-114.452;2023-06-22T05:48:21;2.42;;;1.00;;
65018;SDS011;66069;51.164;-114.452;2023-06-22T05:50:47;2.00;;;0.90;;
65018;SDS011;66069;51.164;-114.452;2023-06-22T05:53:12;1.50;;;0.80;;
65018;SDS011;66069;51.164;-114.452;2023-06-22T05:55:38;1.55;;;0.80;;
65018;SDS011;66069;51.164;-114.452;2023-06-22T05:58:04;0.98;;;0.60;;
65018;SDS011;66069;51.164;-114.452;2023-06-22T06:00:30;1.88;;;0.82;;
65018;SDS011;66069;51.164;-114.452;2023-06-22T06:02:56;1.90;;;0.85;;
65018;SDS011;66069;51.164;-114.452;2023-06-22T06:05:22;1.33;;;0.70;;
65018;SDS011;66069;51.164;-114.452;2023-06-22T06:07:49;1.48;;;0.75;;
65018;SDS011;66069;51.164;-114.452;2023-06-22T06:10:15;2.33;;;1.05;;
65018;SDS011;66069;51.164;-114.452;2023-06-22T06:12:43;1.73;;;0.80;;
65018;SDS011;66069;51.164;-114.452;2023-06-22T06:15:09;2.25;;;0.90;;
65018;SDS011;66069;51.164;-114.452;2023-06-22T06:17:35;1.65;;;0.70;;
65018;SDS011;66069;51.164;-114.452;2023-06-22T06:20:00;1.23;;;0.65;;
65018;SDS011;66069;51.164;-114.452;2023-06-22T06:22:26;1.52;;;0.80;;
65018;SDS011;66069;51.164;-114.452;2023-06-22T06:24:52;1.73;;;0.70;;
65018;SDS011;66069;51.164;-114.452;2023-06-22T06:27:18;1.60;;;0.70;;
65018;SDS011;66069;51.164;-114.452;2023-06-22T06:29:44;1.45;;;0.70;;
65018;SDS011;66069;51.164;-114.452;2023-06-22T06:32:13;1.33;;;0.70;;
65018;SDS011;66069;51.164;-114.452;2023-06-22T06:34:38;1.85;;;0.75;;
65018;SDS011;66069;51.164;-114.452;2023-06-22T06:37:05;1.77;;;0.90;;
65018;SDS011;66069;51.164;-114.452;2023-06-22T06:39:31;1.55;;;0.80;;
65018;SDS011;66069;51.164;-114.452;2023-06-22T06:41:57;1.83;;;0.90;;
65018;SDS011;66069;51.164;-114.452;2023-06-22T06:44:22;1.55;;;0.80;;
65018;SDS011;66069;51.164;-114.452;2023-06-22T06:46:48;1.70;;;0.77;;
65018;SDS011;66069;51.164;-114.452;2023-06-22T06:49:14;1.85;;;0.90;;
65018;SDS011;66069;51.164;-114.452;2023-06-22T06:51:40;1.35;;;0.70;;
65018;SDS011;66069;51.164;-114.452;2023-06-22T06:54:05;1.45;;;0.70;;
65018;SDS011;66069;51.164;-114.452;2023-06-22T06:56:31;1.63;;;0.80;;
65018;SDS011;66069;51.164;-114.452;2023-06-22T06:58:58;1.42;;;0.70;;
65018;SDS011;66069;51.164;-114.452;2023-06-22T07:01:24;1.95;;;1.10;;
65018;SDS011;66069;51.164;-114.452;2023-06-22T07:03:50;1.58;;;0.60;;
65018;SDS011;66069;51.164;-114.452;2023-06-22T07:06:16;1.63;;;0.80;;
65018;SDS011;66069;51.164;-114.452;2023-06-22T07:08:42;1.35;;;0.70;;
65018;SDS011;66069;51.164;-114.452;2023-06-22T07:11:08;1.20;;;0.70;;
65018;SDS011;66069;51.164;-114.452;2023-06-22T07:13:33;1.60;;;0.93;;
65018;SDS011;66069;51.164;-114.452;2023-06-22T07:15:59;1.52;;;0.75;;
65018;SDS011;66069;51.164;-114.452;2023-06-22T07:18:25;1.25;;;0.70;;
65018;SDS011;66069;51.164;-114.452;2023-06-22T07:20:51;2.00;;;0.93;;
65018;SDS011;66069;51.164;-114.452;2023-06-22T07:23:17;2.03;;;0.82;;
65018;SDS011;66069;51.164;-114.452;2023-06-22T07:25:43;1.38;;;0.75;;
65018;SDS011;66069;51.164;-114.452;2023-06-22T07:28:09;1.27;;;0.60;;
65018;SDS011;66069;51.164;-114.452;2023-06-22T07:30:34;1.95;;;1.00;;
65018;SDS011;66069;51.164;-114.452;2023-06-22T07:33:01;1.33;;;0.73;;
65018;SDS011;66069;51.164;-114.452;2023-06-22T07:35:28;1.20;;;0.50;;
65018;SDS011;66069;51.164;-114.452;2023-06-22T07:37:54;1.33;;;0.70;;
65018;SDS011;66069;51.164;-114.452;2023-06-22T07:40:20;1.60;;;0.80;;
65018;SDS011;66069;51.164;-114.452;2023-06-22T07:42:46;1.70;;;0.80;;
65018;SDS011;66069;51.164;-114.452;2023-06-22T07:45:16;1.58;;;0.70;;
65018;SDS011;66069;51.164;-114.452;2023-06-22T07:47:42;1.60;;;0.70;;
65018;SDS011;66069;51.164;-114.452;2023-06-22T07:50:08;1.13;;;0.63;;
65018;SDS011;66069;51.164;-114.452;2023-06-22T07:52:34;2.05;;;0.85;;
65018;SDS011;66069;51.164;-114.452;2023-06-22T07:55:00;1.52;;;0.73;;
65018;SDS011;66069;51.164;-114.452;2023-06-22T07:57:27;1.73;;;0.82;;
65018;SDS011;66069;51.164;-114.452;2023-06-22T07:59:58;1.73;;;0.90;;
65018;SDS011;66069;51.164;-114.452;2023-06-22T08:02:25;1.48;;;0.80;;
65018;SDS011;66069;51.164;-114.452;2023-06-22T08:04:50;1.40;;;0.70;;
65018;SDS011;66069;51.164;-114.452;2023-06-22T08:07:16;1.40;;;0.77;;
65018;SDS011;66069;51.164;-114.452;2023-06-22T08:09:54;1.92;;;0.98;;
65018;SDS011;66069;51.164;-114.452;2023-06-22T08:12:19;1.35;;;0.70;;
65018;SDS011;66069;51.164;-114.452;2023-06-22T08:14:45;1.65;;;0.75;;
65018;SDS011;66069;51.164;-114.452;2023-06-22T08:17:12;1.42;;;0.70;;
65018;SDS011;66069;51.164;-114.452;2023-06-22T08:19:38;1.38;;;0.80;;
65018;SDS011;66069;51.164;-114.452;2023-06-22T08:22:04;1.75;;;0.90;;
65018;SDS011;66069;51.164;-114.452;2023-06-22T08:24:29;1.40;;;0.70;;
65018;SDS011;66069;51.164;-114.452;2023-06-22T08:26:55;1.65;;;0.85;;
65018;SDS011;66069;51.164;-114.452;2023-06-22T08:29:21;1.08;;;0.60;;
65018;SDS011;66069;51.164;-114.452;2023-06-22T08:31:47;1.58;;;0.70;;
65018;SDS011;66069;51.164;-114.452;2023-06-22T08:34:13;1.63;;;0.70;;
65018;SDS011;66069;51.164;-114.452;2023-06-22T08:36:38;1.27;;;0.60;;
65018;SDS011;66069;51.164;-114.452;2023-06-22T08:39:06;1.75;;;0.90;;
65018;SDS011;66069;51.164;-114.452;2023-06-22T08:41:32;1.17;;;0.60;;
65018;SDS011;66069;51.164;-114.452;2023-06-22T08:43:58;1.65;;;0.70;;
65018;SDS011;66069;51.164;-114.452;2023-06-22T08:46:24;1.50;;;0.70;;
65018;SDS011;66069;51.164;-114.452;2023-06-22T08:48:58;1.80;;;0.65;;
65018;SDS011;66069;51.164;-114.452;2023-06-22T08:51:24;1.05;;;0.65;;
65018;SDS011;66069;51.164;-114.452;2023-06-22T08:53:50;1.15;;;0.52;;
65018;SDS011;66069;51.164;-114.452;2023-06-22T08:56:16;1.83;;;0.90;;
65018;SDS011;66069;51.164;-114.452;2023-06-22T08:58:42;1.50;;;0.80;;
65018;SDS011;66069;51.164;-114.452;2023-06-22T09:01:07;1.48;;;0.70;;
65018;SDS011;66069;51.164;-114.452;2023-06-22T09:03:33;1.73;;;0.82;;
65018;SDS011;66069;51.164;-114.452;2023-06-22T09:06:01;1.38;;;0.68;;
65018;SDS011;66069;51.164;-114.452;2023-06-22T09:08:27;1.95;;;0.80;;
65018;SDS011;66069;51.164;-114.452;2023-06-22T09:10:53;1.60;;;0.90;;
65018;SDS011;66069;51.164;-114.452;2023-06-22T09:13:18;1.20;;;0.73;;
65018;SDS011;66069;51.164;-114.452;2023-06-22T09:15:44;1.15;;;0.70;;
65018;SDS011;66069;51.164;-114.452;2023-06-22T09:18:10;1.30;;;0.70;;
65018;SDS011;66069;51.164;-114.452;2023-06-22T09:20:36;1.35;;;0.75;;
65018;SDS011;66069;51.164;-114.452;2023-06-22T09:23:02;1.67;;;0.77;;
65018;SDS011;66069;51.164;-114.452;2023-06-22T09:25:28;1.10;;;0.68;;
65018;SDS011;66069;51.164;-114.452;2023-06-22T09:27:54;1.50;;;0.80;;
65018;SDS011;66069;51.164;-114.452;2023-06-22T09:30:20;1.30;;;0.75;;
65018;SDS011;66069;51.164;-114.452;2023-06-22T09:32:45;1.08;;;0.52;;
65018;SDS011;66069;51.164;-114.452;2023-06-22T09:35:11;2.00;;;0.70;;
65018;SDS011;66069;51.164;-114.452;2023-06-22T09:37:38;0.85;;;0.60;;
65018;SDS011;66069;51.164;-114.452;2023-06-22T09:40:05;1.20;;;0.57;;
65018;SDS011;66069;51.164;-114.452;2023-06-22T09:42:34;1.40;;;0.85;;
65018;SDS011;66069;51.164;-114.452;2023-06-22T09:45:00;1.20;;;0.60;;
65018;SDS011;66069;51.164;-114.452;2023-06-22T09:47:27;1.10;;;0.60;;
65018;SDS011;66069;51.164;-114.452;2023-06-22T09:49:52;1.55;;;0.77;;
65018;SDS011;66069;51.164;-114.452;2023-06-22T09:52:21;1.48;;;0.70;;
65018;SDS011;66069;51.164;-114.452;2023-06-22T09:54:46;1.42;;;0.70;;
65018;SDS011;66069;51.164;-114.452;2023-06-22T09:57:12;1.60;;;0.80;;
65018;SDS011;66069;51.164;-114.452;2023-06-22T09:59:38;0.95;;;0.65;;
65018;SDS011;66069;51.164;-114.452;2023-06-22T10:02:05;1.17;;;0.65;;
65018;SDS011;66069;51.164;-114.452;2023-06-22T10:04:31;1.08;;;0.70;;
65018;SDS011;66069;51.164;-114.452;2023-06-22T10:06:57;0.98;;;0.65;;
65018;SDS011;66069;51.164;-114.452;2023-06-22T10:09:23;1.13;;;0.70;;
65018;SDS011;66069;51.164;-114.452;2023-06-22T10:11:48;1.40;;;0.70;;
65018;SDS011;66069;51.164;-114.452;2023-06-22T10:14:14;1.27;;;0.60;;
65018;SDS011;66069;51.164;-114.452;2023-06-22T10:16:40;1.15;;;0.60;;
65018;SDS011;66069;51.164;-114.452;2023-06-22T10:19:06;1.15;;;0.60;;
65018;SDS011;66069;51.164;-114.452;2023-06-22T10:21:32;1.88;;;0.80;;
65018;SDS011;66069;51.164;-114.452;2023-06-22T10:23:58;1.75;;;0.73;;
65018;SDS011;66069;51.164;-114.452;2023-06-22T10:26:27;1.20;;;0.60;;
65018;SDS011;66069;51.164;-114.452;2023-06-22T10:28:54;1.77;;;0.80;;
65018;SDS011;66069;51.164;-114.452;2023-06-22T10:31:20;1.02;;;0.60;;
65018;SDS011;66069;51.164;-114.452;2023-06-22T10:33:46;1.33;;;0.70;;
65018;SDS011;66069;51.164;-114.452;2023-06-22T10:36:12;1.35;;;0.70;;
65018;SDS011;66069;51.164;-114.452;2023-06-22T10:38:37;1.23;;;0.60;;
65018;SDS011;66069;51.164;-114.452;2023-06-22T10:41:03;1.20;;;0.60;;
65018;SDS011;66069;51.164;-114.452;2023-06-22T10:43:29;1.20;;;0.60;;
65018;SDS011;66069;51.164;-114.452;2023-06-22T10:45:55;1.70;;;0.70;;
65018;SDS011;66069;51.164;-114.452;2023-06-22T10:48:20;1.42;;;0.70;;
65018;SDS011;66069;51.164;-114.452;2023-06-22T10:50:46;1.63;;;0.60;;
65018;SDS011;66069;51.164;-114.452;2023-06-22T10:53:12;1.38;;;0.60;;
65018;SDS011;66069;51.164;-114.452;2023-06-22T10:55:38;1.50;;;0.80;;
65018;SDS011;66069;51.164;-114.452;2023-06-22T10:58:04;1.17;;;0.60;;
65018;SDS011;66069;51.164;-114.452;2023-06-22T11:00:29;1.33;;;0.60;;
65018;SDS011;66069;51.164;-114.452;2023-06-22T11:02:55;1.48;;;0.73;;
65018;SDS011;66069;51.164;-114.452;2023-06-22T11:05:21;1.38;;;0.70;;
65018;SDS011;66069;51.164;-114.452;2023-06-22T11:07:47;1.33;;;0.77;;
65018;SDS011;66069;51.164;-114.452;2023-06-22T11:10:14;1.42;;;0.70;;
65018;SDS011;66069;51.164;-114.452;2023-06-22T11:12:40;1.20;;;0.55;;
65018;SDS011;66069;51.164;-114.452;2023-06-22T11:15:08;1.13;;;0.60;;
65018;SDS011;66069;51.164;-114.452;2023-06-22T11:17:34;1.48;;;0.60;;
65018;SDS011;66069;51.164;-114.452;2023-06-22T11:19:59;1.40;;;0.75;;
65018;SDS011;66069;51.164;-114.452;2023-06-22T11:22:25;1.23;;;0.60;;
65018;SDS011;66069;51.164;-114.452;2023-06-22T11:24:51;1.50;;;0.70;;
65018;SDS011;66069;51.164;-114.452;2023-06-22T11:27:17;1.00;;;0.50;;
65018;SDS011;66069;51.164;-114.452;2023-06-22T11:29:43;1.13;;;0.60;;
65018;SDS011;66069;51.164;-114.452;2023-06-22T11:32:09;0.82;;;0.50;;
65018;SDS011;66069;51.164;-114.452;2023-06-22T11:34:34;0.73;;;0.50;;
65018;SDS011;66069;51.164;-114.452;2023-06-22T11:37:00;1.15;;;0.60;;
65018;SDS011;66069;51.164;-114.452;2023-06-22T11:39:26;1.70;;;0.77;;
65018;SDS011;66069;51.164;-114.452;2023-06-22T11:41:52;1.50;;;0.70;;
65018;SDS011;66069;51.164;-114.452;2023-06-22T11:44:18;1.05;;;0.63;;
65018;SDS011;66069;51.164;-114.452;2023-06-22T11:46:44;1.35;;;0.70;;
65018;SDS011;66069;51.164;-114.452;2023-06-22T11:49:09;1.67;;;0.93;;
65018;SDS011;66069;51.164;-114.452;2023-06-22T11:51:35;1.52;;;0.80;;
65018;SDS011;66069;51.164;-114.452;2023-06-22T11:54:01;1.15;;;0.60;;
65018;SDS011;66069;51.164;-114.452;2023-06-22T11:56:28;1.30;;;0.50;;
65018;SDS011;66069;51.164;-114.452;2023-06-22T11:58:54;0.50;;;0.40;;
65018;SDS011;66069;51.164;-114.452;2023-06-22T12:01:20;1.30;;;0.60;;
65018;SDS011;66069;51.164;-114.452;2023-06-22T12:03:46;1.27;;;0.57;;
65018;SDS011;66069;51.164;-114.452;2023-06-22T12:06:13;1.45;;;0.60;;
65018;SDS011;66069;51.164;-114.452;2023-06-22T12:08:39;1.52;;;0.80;;
65018;SDS011;66069;51.164;-114.452;2023-06-22T12:11:04;1.08;;;0.60;;
65018;SDS011;66069;51.164;-114.452;2023-06-22T12:13:30;1.45;;;0.70;;
65018;SDS011;66069;51.164;-114.452;2023-06-22T12:15:56;0.95;;;0.47;;
65018;SDS011;66069;51.164;-114.452;2023-06-22T12:18:22;0.65;;;0.45;;
65018;SDS011;66069;51.164;-114.452;2023-06-22T12:20:47;1.55;;;0.70;;
65018;SDS011;66069;51.164;-114.452;2023-06-22T12:23:14;1.33;;;0.63;;
65018;SDS011;66069;51.164;-114.452;2023-06-22T12:25:40;1.42;;;0.73;;
65018;SDS011;66069;51.164;-114.452;2023-06-22T12:28:05;1.40;;;0.60;;
65018;SDS011;66069;51.164;-114.452;2023-06-22T12:30:34;1.27;;;0.60;;
65018;SDS011;66069;51.164;-114.452;2023-06-22T12:33:00;1.00;;;0.55;;
65018;SDS011;66069;51.164;-114.452;2023-06-22T12:35:25;1.25;;;0.60;;
65018;SDS011;66069;51.164;-114.452;2023-06-22T12:37:51;0.80;;;0.50;;
65018;SDS011;66069;51.164;-114.452;2023-06-22T12:40:18;1.30;;;0.60;;
65018;SDS011;66069;51.164;-114.452;2023-06-22T12:42:44;1.02;;;0.50;;
65018;SDS011;66069;51.164;-114.452;2023-06-22T12:45:10;1.23;;;0.60;;
65018;SDS011;66069;51.164;-114.452;2023-06-22T12:47:36;1.25;;;0.60;;
65018;SDS011;66069;51.164;-114.452;2023-06-22T12:50:01;0.90;;;0.50;;
65018;SDS011;66069;51.164;-114.452;2023-06-22T12:52:29;1.10;;;0.60;;
65018;SDS011;66069;51.164;-114.452;2023-06-22T12:54:56;1.40;;;0.60;;
65018;SDS011;66069;51.164;-114.452;2023-06-22T12:57:22;1.27;;;0.60;;
65018;SDS011;66069;51.164;-114.452;2023-06-22T12:59:48;1.20;;;0.60;;
65018;SDS011;66069;51.164;-114.452;2023-06-22T13:02:14;1.52;;;0.65;;
65018;SDS011;66069;51.164;-114.452;2023-06-22T13:04:40;1.27;;;0.60;;
65018;SDS011;66069;51.164;-114.452;2023-06-22T13:07:06;1.15;;;0.70;;
65018;SDS011;66069;51.164;-114.452;2023-06-22T13:09:32;1.20;;;0.60;;
65018;SDS011;66069;51.164;-114.452;2023-06-22T13:12:00;1.55;;;0.70;;
65018;SDS011;66069;51.164;-114.452;2023-06-22T13:14:25;0.95;;;0.60;;
65018;SDS011;66069;51.164;-114.452;2023-06-22T13:16:51;1.15;;;0.60;;
65018;SDS011;66069;51.164;-114.452;2023-06-22T13:19:17;1.27;;;0.57;;
65018;SDS011;66069;51.164;-114.452;2023-06-22T13:21:43;1.08;;;0.60;;
65018;SDS011;66069;51.164;-114.452;2023-06-22T13:24:09;1.08;;;0.60;;
65018;SDS011;66069;51.164;-114.452;2023-06-22T13:26:34;0.60;;;0.40;;
65018;SDS011;66069;51.164;-114.452;2023-06-22T13:29:00;0.65;;;0.43;;
65018;SDS011;66069;51.164;-114.452;2023-06-22T13:31:26;0.70;;;0.50;;
65018;SDS011;66069;51.164;-114.452;2023-06-22T13:33:52;1.00;;;0.60;;
65018;SDS011;66069;51.164;-114.452;2023-06-22T13:36:18;1.20;;;0.60;;
65018;SDS011;66069;51.164;-114.452;2023-06-22T13:38:44;1.38;;;0.70;;
65018;SDS011;66069;51.164;-114.452;2023-06-22T13:41:10;1.40;;;0.70;;
65018;SDS011;66069;51.164;-114.452;2023-06-22T13:43:36;1.05;;;0.70;;
65018;SDS011;66069;51.164;-114.452;2023-06-22T13:46:02;1.27;;;0.60;;
65018;SDS011;66069;51.164;-114.452;2023-06-22T13:48:27;0.98;;;0.60;;
65018;SDS011;66069;51.164;-114.452;2023-06-22T13:50:54;1.10;;;0.70;;
65018;SDS011;66069;51.164;-114.452;2023-06-22T13:53:19;1.40;;;0.75;;
65018;SDS011;66069;51.164;-114.452;2023-06-22T13:55:45;1.08;;;0.57;;
65018;SDS011;66069;51.164;-114.452;2023-06-22T13:58:12;1.13;;;0.50;;
65018;SDS011;66069;51.164;-114.452;2023-06-22T14:00:38;1.08;;;0.60;;
65018;SDS011;66069;51.164;-114.452;2023-06-22T14:03:04;1.13;;;0.60;;
65018;SDS011;66069;51.164;-114.452;2023-06-22T14:05:30;0.75;;;0.50;;
65018;SDS011;66069;51.164;-114.452;2023-06-22T14:07:55;1.42;;;0.70;;
65018;SDS011;66069;51.164;-114.452;2023-06-22T14:10:21;1.08;;;0.60;;
65018;SDS011;66069;51.164;-114.452;2023-06-22T14:12:47;1.35;;;0.60;;
65018;SDS011;66069;51.164;-114.452;2023-06-22T14:15:13;1.30;;;0.70;;